EIEIO EICK-EIDL
Flight info
| Callsign | EIEIO |
|---|---|
| Flight time | 0h 47m |
| Altitude | 24000 |
| Route | KURUM1M KURUM DCT SHA/N0313F230 DCT CON DCT SLG DCT CFN |
| Aircraft | B350/L-SBGRW/S |
Departure
| Time | 2026-04-30 21:32 |
|---|---|
| Airport | Cork International Airport (EICK) |
Arrival
| Time | 2026-04-30 22:19 |
|---|---|
| Airport | Donegal Airport (EIDL) |
| Time | Latitude | Longitude | Altitude | Speed | Heading |
|---|---|---|---|---|---|
| 2026-04-30 21:17 | 51.83830 | -8.48544 | 473 ft | 0 kts | 250° |
| 2026-04-30 21:27 | 51.83828 | -8.48572 | 473 ft | 5 kts | 289° |
| 2026-04-30 21:27 | 51.83822 | -8.48653 | 473 ft | 10 kts | 251° |
| 2026-04-30 21:28 | 51.83783 | -8.48905 | 473 ft | 10 kts | 312° |
| 2026-04-30 21:28 | 51.83867 | -8.48953 | 475 ft | 15 kts | 347° |
| 2026-04-30 21:28 | 51.84106 | -8.49089 | 482 ft | 20 kts | 339° |
| 2026-04-30 21:29 | 51.84227 | -8.49173 | 485 ft | 18 kts | 329° |
| 2026-04-30 21:29 | 51.84163 | -8.49584 | 484 ft | 5 kts | 330° |
| 2026-04-30 21:30 | 51.84185 | -8.49554 | 484 ft | 0 kts | 36° |
| 2026-04-30 21:31 | 51.84188 | -8.49547 | 484 ft | 0 kts | 68° |
| 2026-04-30 21:31 | 51.84698 | -8.47931 | 864 ft | 128 kts | 66° |
| 2026-04-30 21:32 | 51.86211 | -8.46197 | 1961 ft | 171 kts | 0° |
| 2026-04-30 21:32 | 51.87393 | -8.46765 | 2463 ft | 185 kts | 338° |
| 2026-04-30 21:32 | 51.88555 | -8.47667 | 3055 ft | 190 kts | 335° |
| 2026-04-30 21:32 | 51.89748 | -8.48539 | 3671 ft | 192 kts | 338° |
| 2026-04-30 21:33 | 51.91002 | -8.49351 | 4263 ft | 195 kts | 340° |
| 2026-04-30 21:33 | 51.93581 | -8.50803 | 5388 ft | 200 kts | 342° |
| 2026-04-30 21:33 | 51.94896 | -8.51520 | 5938 ft | 205 kts | 343° |
| 2026-04-30 21:34 | 51.96260 | -8.52256 | 6569 ft | 208 kts | 343° |
| 2026-04-30 21:34 | 51.98986 | -8.53713 | 7801 ft | 211 kts | 344° |
| 2026-04-30 21:34 | 52.00385 | -8.54457 | 8378 ft | 215 kts | 344° |
| 2026-04-30 21:35 | 52.01802 | -8.55211 | 8985 ft | 218 kts | 344° |
| 2026-04-30 21:35 | 52.03257 | -8.55983 | 9587 ft | 221 kts | 345° |
| 2026-04-30 21:35 | 52.04708 | -8.56749 | 10171 ft | 223 kts | 344° |
| 2026-04-30 21:35 | 52.06176 | -8.57529 | 10743 ft | 225 kts | 344° |
| 2026-04-30 21:36 | 52.07663 | -8.58319 | 11312 ft | 226 kts | 345° |
| 2026-04-30 21:36 | 52.09155 | -8.59114 | 11830 ft | 227 kts | 345° |
| 2026-04-30 21:37 | 52.13701 | -8.61540 | 13211 ft | 233 kts | 344° |
| 2026-04-30 21:37 | 52.15258 | -8.62372 | 13610 ft | 234 kts | 344° |
| 2026-04-30 21:37 | 52.16817 | -8.63205 | 13970 ft | 236 kts | 344° |
| 2026-04-30 21:37 | 52.18360 | -8.64032 | 14340 ft | 239 kts | 344° |
| 2026-04-30 21:38 | 52.19945 | -8.64881 | 14746 ft | 239 kts | 344° |
| 2026-04-30 21:38 | 52.21538 | -8.65736 | 15157 ft | 242 kts | 343° |
| 2026-04-30 21:38 | 52.23121 | -8.66585 | 15615 ft | 242 kts | 343° |
| 2026-04-30 21:38 | 52.24728 | -8.67363 | 16077 ft | 241 kts | 347° |
| 2026-04-30 21:39 | 52.26353 | -8.68054 | 16506 ft | 242 kts | 348° |
| 2026-04-30 21:39 | 52.27985 | -8.68753 | 16922 ft | 243 kts | 348° |
| 2026-04-30 21:39 | 52.29603 | -8.69457 | 17313 ft | 244 kts | 348° |
| 2026-04-30 21:39 | 52.31251 | -8.70181 | 17696 ft | 246 kts | 348° |
| 2026-04-30 21:40 | 52.32899 | -8.70908 | 18085 ft | 247 kts | 347° |
| 2026-04-30 21:40 | 52.34532 | -8.71631 | 18464 ft | 247 kts | 348° |
| 2026-04-30 21:40 | 52.36207 | -8.72373 | 18834 ft | 248 kts | 347° |
| 2026-04-30 21:40 | 52.37856 | -8.73106 | 19174 ft | 249 kts | 347° |
| 2026-04-30 21:41 | 52.39538 | -8.73855 | 19538 ft | 249 kts | 347° |
| 2026-04-30 21:41 | 52.41188 | -8.74591 | 19886 ft | 250 kts | 347° |
| 2026-04-30 21:41 | 52.42879 | -8.75346 | 20216 ft | 251 kts | 347° |
| 2026-04-30 21:41 | 52.44562 | -8.76098 | 20532 ft | 252 kts | 347° |
| 2026-04-30 21:42 | 52.46238 | -8.76847 | 20852 ft | 253 kts | 347° |
| 2026-04-30 21:42 | 52.47935 | -8.77605 | 21164 ft | 254 kts | 347° |
| 2026-04-30 21:42 | 52.49651 | -8.78372 | 21472 ft | 254 kts | 347° |
| 2026-04-30 21:42 | 52.51348 | -8.79130 | 21765 ft | 255 kts | 348° |
| 2026-04-30 21:43 | 52.53052 | -8.79889 | 22060 ft | 255 kts | 347° |
| 2026-04-30 21:43 | 52.54771 | -8.80658 | 22343 ft | 256 kts | 347° |
| 2026-04-30 21:43 | 52.56484 | -8.81426 | 22619 ft | 257 kts | 347° |
| 2026-04-30 21:43 | 52.58193 | -8.82194 | 22891 ft | 257 kts | 347° |
| 2026-04-30 21:44 | 52.59925 | -8.82973 | 23134 ft | 259 kts | 347° |
| 2026-04-30 21:44 | 52.61669 | -8.83763 | 23396 ft | 260 kts | 347° |
| 2026-04-30 21:44 | 52.63388 | -8.84542 | 23665 ft | 260 kts | 347° |
| 2026-04-30 21:44 | 52.65140 | -8.85336 | 23933 ft | 260 kts | 347° |
| 2026-04-30 21:45 | 52.66890 | -8.86127 | 24057 ft | 269 kts | 347° |
| 2026-04-30 21:45 | 52.68743 | -8.86961 | 24076 ft | 282 kts | 347° |
| 2026-04-30 21:45 | 52.70679 | -8.87812 | 24080 ft | 294 kts | 351° |
| 2026-04-30 21:45 | 52.72704 | -8.88302 | 24085 ft | 302 kts | 1° |
| 2026-04-30 21:46 | 52.74836 | -8.88378 | 24079 ft | 310 kts | 6° |
| 2026-04-30 21:46 | 52.77034 | -8.88271 | 24074 ft | 319 kts | 8° |
| 2026-04-30 21:46 | 52.79279 | -8.88125 | 24070 ft | 328 kts | 7° |
| 2026-04-30 21:46 | 52.81560 | -8.87986 | 24067 ft | 336 kts | 7° |
| 2026-04-30 21:47 | 52.83898 | -8.87753 | 24032 ft | 341 kts | 14° |
| 2026-04-30 21:47 | 52.86283 | -8.87393 | 24059 ft | 348 kts | 8° |
| 2026-04-30 21:47 | 52.88724 | -8.87250 | 24062 ft | 354 kts | 6° |
| 2026-04-30 21:47 | 52.91205 | -8.87194 | 24061 ft | 359 kts | 5° |
| 2026-04-30 21:48 | 52.93712 | -8.87150 | 24066 ft | 363 kts | 5° |
| 2026-04-30 21:48 | 52.96230 | -8.87077 | 24064 ft | 367 kts | 6° |
| 2026-04-30 21:48 | 52.98789 | -8.86981 | 24063 ft | 370 kts | 6° |
| 2026-04-30 21:48 | 53.01340 | -8.86870 | 24060 ft | 372 kts | 6° |
| 2026-04-30 21:49 | 53.03940 | -8.86747 | 24057 ft | 374 kts | 6° |
| 2026-04-30 21:49 | 53.06515 | -8.86620 | 24057 ft | 375 kts | 6° |
| 2026-04-30 21:49 | 53.09158 | -8.86485 | 24056 ft | 377 kts | 6° |
| 2026-04-30 21:49 | 53.11760 | -8.86349 | 24046 ft | 377 kts | 6° |
| 2026-04-30 21:50 | 53.14382 | -8.86210 | 24042 ft | 377 kts | 6° |
| 2026-04-30 21:50 | 53.16983 | -8.86071 | 24048 ft | 377 kts | 6° |
| 2026-04-30 21:50 | 53.19624 | -8.85929 | 24054 ft | 377 kts | 6° |
| 2026-04-30 21:50 | 53.22207 | -8.85808 | 24052 ft | 377 kts | 5° |
| 2026-04-30 21:51 | 53.24844 | -8.85676 | 24050 ft | 377 kts | 6° |
| 2026-04-30 21:51 | 53.27436 | -8.85535 | 24054 ft | 376 kts | 6° |
| 2026-04-30 21:51 | 53.30056 | -8.85392 | 24054 ft | 376 kts | 6° |
| 2026-04-30 21:51 | 53.32655 | -8.85250 | 24057 ft | 376 kts | 5° |
| 2026-04-30 21:52 | 53.35265 | -8.85107 | 24059 ft | 376 kts | 6° |
| 2026-04-30 21:52 | 53.37870 | -8.84963 | 24051 ft | 376 kts | 6° |
| 2026-04-30 21:52 | 53.40471 | -8.84820 | 24059 ft | 376 kts | 6° |
| 2026-04-30 21:52 | 53.43091 | -8.84676 | 24052 ft | 376 kts | 6° |
| 2026-04-30 21:53 | 53.45682 | -8.84533 | 24053 ft | 376 kts | 6° |
| 2026-04-30 21:53 | 53.48277 | -8.84390 | 24057 ft | 376 kts | 6° |
| 2026-04-30 21:53 | 53.50876 | -8.84246 | 24060 ft | 375 kts | 6° |
| 2026-04-30 21:53 | 53.53503 | -8.84099 | 23844 ft | 382 kts | 6° |
| 2026-04-30 21:54 | 53.56160 | -8.83948 | 23479 ft | 385 kts | 6° |
| 2026-04-30 21:54 | 53.58839 | -8.83798 | 23111 ft | 386 kts | 6° |
| 2026-04-30 21:54 | 53.61486 | -8.83650 | 22747 ft | 386 kts | 5° |
| 2026-04-30 21:54 | 53.64171 | -8.83500 | 22379 ft | 385 kts | 5° |
| 2026-04-30 21:55 | 53.66859 | -8.83351 | 22007 ft | 385 kts | 5° |
| 2026-04-30 21:55 | 53.69503 | -8.83203 | 21643 ft | 384 kts | 5° |
| 2026-04-30 21:55 | 53.72158 | -8.83056 | 21277 ft | 383 kts | 6° |
| 2026-04-30 21:55 | 53.74827 | -8.82907 | 20903 ft | 382 kts | 6° |
| 2026-04-30 21:56 | 53.77443 | -8.82761 | 20530 ft | 380 kts | 6° |
| 2026-04-30 21:56 | 53.80054 | -8.82614 | 20162 ft | 377 kts | 5° |
| 2026-04-30 21:56 | 53.82673 | -8.82468 | 19785 ft | 375 kts | 5° |
| 2026-04-30 21:56 | 53.85283 | -8.82321 | 19415 ft | 373 kts | 5° |
| 2026-04-30 21:57 | 53.87871 | -8.82174 | 19051 ft | 371 kts | 5° |
| 2026-04-30 21:57 | 53.90393 | -8.81754 | 18676 ft | 365 kts | 13° |
| 2026-04-30 21:57 | 53.92839 | -8.80777 | 18286 ft | 354 kts | 21° |
| 2026-04-30 21:57 | 53.95124 | -8.79494 | 17937 ft | 347 kts | 24° |
| 2026-04-30 21:58 | 53.97407 | -8.78144 | 17559 ft | 343 kts | 24° |
| 2026-04-30 21:58 | 53.99613 | -8.76834 | 17191 ft | 339 kts | 24° |
| 2026-04-30 21:58 | 54.01822 | -8.75523 | 16823 ft | 336 kts | 24° |
| 2026-04-30 21:58 | 54.04030 | -8.74213 | 16448 ft | 334 kts | 24° |
| 2026-04-30 21:59 | 54.06195 | -8.72928 | 16088 ft | 332 kts | 24° |
| 2026-04-30 21:59 | 54.08361 | -8.71642 | 15723 ft | 330 kts | 24° |
| 2026-04-30 21:59 | 54.10515 | -8.70362 | 15353 ft | 327 kts | 22° |
| 2026-04-30 22:00 | 54.14788 | -8.67820 | 14572 ft | 323 kts | 23° |
| 2026-04-30 22:00 | 54.18940 | -8.65332 | 13822 ft | 317 kts | 23° |
| 2026-04-30 22:00 | 54.21019 | -8.64087 | 13447 ft | 316 kts | 23° |
| 2026-04-30 22:01 | 54.23072 | -8.62856 | 13079 ft | 316 kts | 22° |
| 2026-04-30 22:01 | 54.25149 | -8.61611 | 12704 ft | 317 kts | 22° |
| 2026-04-30 22:01 | 54.27255 | -8.60424 | 12325 ft | 319 kts | 18° |
| 2026-04-30 22:01 | 54.29464 | -8.59877 | 11944 ft | 322 kts | 3° |
| 2026-04-30 22:02 | 54.31683 | -8.59747 | 11610 ft | 321 kts | 4° |
| 2026-04-30 22:02 | 54.33914 | -8.59545 | 11233 ft | 321 kts | 5° |
| 2026-04-30 22:02 | 54.36136 | -8.59345 | 10863 ft | 320 kts | 4° |
| 2026-04-30 22:02 | 54.38335 | -8.59153 | 10497 ft | 320 kts | 4° |
| 2026-04-30 22:03 | 54.40571 | -8.58963 | 10120 ft | 319 kts | 4° |
| 2026-04-30 22:03 | 54.42752 | -8.58780 | 9752 ft | 318 kts | 4° |
| 2026-04-30 22:03 | 54.44977 | -8.58594 | 9370 ft | 317 kts | 4° |
| 2026-04-30 22:03 | 54.47133 | -8.58415 | 8992 ft | 312 kts | 4° |
| 2026-04-30 22:04 | 54.49287 | -8.58240 | 8606 ft | 307 kts | 4° |
| 2026-04-30 22:04 | 54.51385 | -8.58069 | 8229 ft | 303 kts | 5° |
| 2026-04-30 22:04 | 54.55528 | -8.57728 | 7463 ft | 294 kts | 5° |
| 2026-04-30 22:05 | 54.57565 | -8.57565 | 7072 ft | 291 kts | 5° |
| 2026-04-30 22:05 | 54.59568 | -8.57402 | 6701 ft | 289 kts | 5° |
| 2026-04-30 22:05 | 54.61570 | -8.57240 | 6319 ft | 287 kts | 6° |
| 2026-04-30 22:05 | 54.63535 | -8.57079 | 5944 ft | 286 kts | 5° |
| 2026-04-30 22:06 | 54.65531 | -8.56915 | 5563 ft | 284 kts | 6° |
| 2026-04-30 22:06 | 54.69441 | -8.56593 | 4803 ft | 280 kts | 6° |
| 2026-04-30 22:06 | 54.71355 | -8.56435 | 4419 ft | 277 kts | 6° |
| 2026-04-30 22:07 | 54.73269 | -8.56277 | 4035 ft | 274 kts | 6° |
| 2026-04-30 22:07 | 54.75144 | -8.56121 | 3641 ft | 265 kts | 6° |
| 2026-04-30 22:07 | 54.76949 | -8.55972 | 3267 ft | 257 kts | 6° |
| 2026-04-30 22:07 | 54.78698 | -8.55826 | 2884 ft | 251 kts | 6° |
| 2026-04-30 22:08 | 54.80417 | -8.55683 | 2498 ft | 245 kts | 6° |
| 2026-04-30 22:08 | 54.82090 | -8.55542 | 2120 ft | 241 kts | 6° |
| 2026-04-30 22:08 | 54.83713 | -8.55080 | 1741 ft | 233 kts | 17° |
| 2026-04-30 22:08 | 54.85259 | -8.54386 | 1367 ft | 229 kts | 17° |
| 2026-04-30 22:09 | 54.86782 | -8.53663 | 1029 ft | 223 kts | 18° |
| 2026-04-30 22:09 | 54.88214 | -8.52906 | 931 ft | 208 kts | 23° |
| 2026-04-30 22:09 | 54.89510 | -8.51909 | 933 ft | 202 kts | 30° |
| 2026-04-30 22:09 | 54.90738 | -8.50749 | 967 ft | 198 kts | 31° |
| 2026-04-30 22:10 | 54.91937 | -8.49668 | 1025 ft | 193 kts | 29° |
| 2026-04-30 22:10 | 54.93121 | -8.48604 | 1037 ft | 191 kts | 30° |
| 2026-04-30 22:10 | 54.94313 | -8.47596 | 1023 ft | 192 kts | 28° |
| 2026-04-30 22:10 | 54.95549 | -8.46704 | 1007 ft | 193 kts | 21° |
| 2026-04-30 22:11 | 54.98019 | -8.45047 | 1092 ft | 194 kts | 33° |
| 2026-04-30 22:11 | 54.99117 | -8.43632 | 1255 ft | 203 kts | 40° |
| 2026-04-30 22:11 | 55.00290 | -8.42151 | 1383 ft | 211 kts | 38° |
| 2026-04-30 22:12 | 55.01487 | -8.40624 | 1361 ft | 217 kts | 40° |
| 2026-04-30 22:12 | 55.02657 | -8.38975 | 1462 ft | 215 kts | 43° |
| 2026-04-30 22:12 | 55.03868 | -8.37428 | 1378 ft | 210 kts | 35° |
| 2026-04-30 22:12 | 55.05024 | -8.36101 | 1186 ft | 188 kts | 36° |
| 2026-04-30 22:13 | 55.06087 | -8.35087 | 1097 ft | 163 kts | 30° |
| 2026-04-30 22:13 | 55.06954 | -8.34193 | 851 ft | 132 kts | 49° |
| 2026-04-30 22:13 | 55.07242 | -8.32755 | 737 ft | 136 kts | 95° |
| 2026-04-30 22:13 | 55.06726 | -8.31492 | 924 ft | 142 kts | 169° |
| 2026-04-30 22:14 | 55.05867 | -8.32418 | 1013 ft | 163 kts | 223° |
| 2026-04-30 22:14 | 55.04974 | -8.33840 | 1371 ft | 185 kts | 213° |
| 2026-04-30 22:14 | 55.03735 | -8.34674 | 1518 ft | 197 kts | 183° |
| 2026-04-30 22:14 | 55.02424 | -8.34175 | 1483 ft | 195 kts | 148° |
| 2026-04-30 22:15 | 55.01575 | -8.32428 | 1476 ft | 195 kts | 111° |
| 2026-04-30 22:15 | 55.01636 | -8.30101 | 1435 ft | 202 kts | 68° |
| 2026-04-30 22:15 | 55.02586 | -8.28348 | 1443 ft | 203 kts | 31° |
| 2026-04-30 22:15 | 55.03934 | -8.27663 | 1431 ft | 195 kts | 15° |
| 2026-04-30 22:16 | 55.05235 | -8.27291 | 1432 ft | 186 kts | 12° |
| 2026-04-30 22:16 | 55.06461 | -8.27049 | 1435 ft | 173 kts | 8° |
| 2026-04-30 22:17 | 55.09294 | -8.28516 | 1020 ft | 163 kts | 289° |
| 2026-04-30 22:17 | 55.09287 | -8.30436 | 943 ft | 160 kts | 243° |
| 2026-04-30 22:17 | 55.07508 | -8.32268 | 725 ft | 145 kts | 199° |
| 2026-04-30 22:18 | 55.06577 | -8.32773 | 511 ft | 133 kts | 193° |
| 2026-04-30 22:18 | 55.04910 | -8.33781 | 36 ft | 124 kts | 201° |
| 2026-04-30 22:19 | 55.03972 | -8.34388 | 7 ft | 16 kts | 198° |
| 2026-04-30 22:19 | 55.03883 | -8.34379 | 7 ft | 14 kts | 117° |
| 2026-04-30 22:19 | 55.03882 | -8.34145 | 7 ft | 3 kts | 321° |
| 2026-04-30 22:20 | 55.03883 | -8.34147 | 7 ft | 0 kts | 319° |